createdAt,value
2022-09-23T00:00:20.706Z,486.6
2022-09-23T00:01:27.335Z,490.2
2022-09-23T00:02:33.778Z,488.8
2022-09-23T00:03:40.317Z,494.4
2022-09-23T00:04:46.850Z,487.3
2022-09-23T00:05:53.376Z,494.7
2022-09-23T00:06:59.924Z,491.3
2022-09-23T00:08:06.476Z,492.6
2022-09-23T00:09:12.989Z,493.6
2022-09-23T00:11:02.347Z,492.2
2022-09-23T00:12:09.213Z,487.4
2022-09-23T00:13:15.900Z,496
2022-09-23T00:14:22.693Z,489.4
2022-09-23T00:15:29.448Z,490.3
2022-09-23T00:16:36.241Z,494.8
2022-09-23T00:17:42.998Z,490.9
2022-09-23T00:18:49.787Z,487.9
2022-09-23T00:19:56.592Z,484
2022-09-23T00:21:03.326Z,486.3
2022-09-23T00:22:10.146Z,491
2022-09-23T00:23:16.900Z,489.2
2022-09-23T00:24:23.671Z,488.6
2022-09-23T00:27:41.835Z,492.5
2022-09-23T00:29:19.758Z,493.3
2022-09-23T00:30:26.159Z,485.8
2022-09-23T00:31:32.571Z,490.6
2022-09-23T00:32:39.012Z,490.1
2022-09-23T00:33:45.415Z,490.5
2022-09-23T00:34:51.835Z,494.1
2022-09-23T00:35:58.254Z,484.8
2022-09-23T00:37:04.689Z,490.4
2022-09-23T00:38:11.112Z,491.7
2022-09-23T00:39:17.573Z,486.4
2022-09-23T00:40:23.977Z,480.2
2022-09-23T00:41:30.408Z,487.2
2022-09-23T00:42:36.846Z,488.2
2022-09-23T00:43:43.215Z,494.2
2022-09-23T00:44:49.624Z,480.7
2022-09-23T00:45:56.055Z,486.6
2022-09-23T00:47:02.545Z,487.8
2022-09-23T00:48:08.890Z,487.2
2022-09-23T00:49:15.363Z,490.8
2022-09-23T00:50:21.746Z,494.6
2022-09-23T00:51:28.181Z,493.1
2022-09-23T00:52:34.623Z,494.3
2022-09-23T00:53:41.003Z,490.6
2022-09-23T00:54:47.417Z,491
2022-09-23T00:55:53.840Z,496.3
2022-09-23T00:57:00.406Z,493.2
2022-09-23T00:58:07.001Z,494
2022-09-23T00:59:13.539Z,497.3
2022-09-23T01:00:20.013Z,494
2022-09-23T01:01:26.579Z,497.8
2022-09-23T01:02:33.124Z,494.9
2022-09-23T01:03:39.677Z,492.1
2022-09-23T01:04:46.214Z,495
2022-09-23T01:05:52.704Z,491.2
2022-09-23T01:06:59.239Z,496.8
2022-09-23T01:08:05.793Z,498
2022-09-23T01:09:12.335Z,495.8
2022-09-23T01:10:18.944Z,498.1
2022-09-23T01:12:08.227Z,494.7
2022-09-23T01:13:14.990Z,496.8
2022-09-23T01:14:21.758Z,495
2022-09-23T01:15:28.550Z,499.5
2022-09-23T01:16:35.308Z,495.1
2022-09-23T01:17:42.134Z,501
2022-09-23T01:18:48.861Z,498.6
2022-09-23T01:19:55.707Z,496.1
2022-09-23T01:21:02.421Z,506.5
2022-09-23T01:22:09.226Z,501.1
2022-09-23T01:23:16.044Z,500.5
2022-09-23T01:24:22.863Z,499.4
2022-09-23T01:25:29.526Z,498.7
2022-09-23T01:28:47.736Z,497.5
2022-09-23T01:30:25.652Z,498.4
2022-09-23T01:31:32.020Z,492.1
2022-09-23T01:32:38.502Z,498.8
2022-09-23T01:33:44.867Z,497
2022-09-23T01:34:51.325Z,500
2022-09-23T01:35:57.701Z,495.2
2022-09-23T01:37:04.137Z,499.4
2022-09-23T01:38:10.544Z,492.7
2022-09-23T01:39:16.967Z,494
2022-09-23T01:40:23.397Z,497.2
2022-09-23T01:41:29.808Z,500.9
2022-09-23T01:42:36.405Z,490.9
2022-09-23T01:43:42.671Z,497
2022-09-23T01:44:49.088Z,498.1
2022-09-23T01:45:55.499Z,494.7
2022-09-23T01:47:01.930Z,501.4
2022-09-23T01:48:08.355Z,495
2022-09-23T01:49:14.769Z,493.8
2022-09-23T01:50:21.184Z,493.8
2022-09-23T01:51:27.607Z,497.2
2022-09-23T01:52:34.038Z,496.2
2022-09-23T01:53:40.496Z,491.6
2022-09-23T01:54:46.861Z,495.5
2022-09-23T01:55:53.283Z,492.5
2022-09-23T01:56:59.700Z,493.5
2022-09-23T01:58:06.245Z,498.5
2022-09-23T01:59:12.808Z,492.6
2022-09-23T02:00:19.316Z,498.7
2022-09-23T02:01:25.881Z,494.1
2022-09-23T02:02:32.391Z,497.3
2022-09-23T02:03:38.941Z,493.5
2022-09-23T02:04:45.470Z,496.5
2022-09-23T02:05:52.004Z,496.8
2022-09-23T02:06:58.538Z,499.5
2022-09-23T02:08:05.073Z,496.7
2022-09-23T02:09:11.614Z,495.8
2022-09-23T02:10:18.189Z,501.6
2022-09-23T02:11:24.701Z,498
2022-09-23T02:13:14.101Z,498.9
2022-09-23T02:14:20.821Z,503.5
2022-09-23T02:15:27.598Z,496.5
2022-09-23T02:16:34.373Z,499.5
2022-09-23T02:17:41.159Z,493.6
2022-09-23T02:18:47.930Z,496
2022-09-23T02:19:54.802Z,491.8
2022-09-23T02:21:01.489Z,499.1
2022-09-23T02:22:08.293Z,495.8
2022-09-23T02:23:15.047Z,497.9
2022-09-23T02:24:21.819Z,495.5
2022-09-23T02:25:28.595Z,497.2
2022-09-23T02:26:35.369Z,501.7
2022-09-23T02:29:53.599Z,500
2022-09-23T02:31:31.464Z,499.4
2022-09-23T02:32:37.888Z,494.8
2022-09-23T02:33:44.313Z,488.9
2022-09-23T02:34:50.716Z,492.3
2022-09-23T02:35:57.138Z,494.1
2022-09-23T02:37:03.558Z,495.6
2022-09-23T02:38:10.050Z,494.8
2022-09-23T02:39:16.455Z,495.1
2022-09-23T02:40:22.879Z,495.3
2022-09-23T02:41:29.242Z,494.2
2022-09-23T02:42:35.670Z,496.1
2022-09-23T02:43:42.088Z,496.3
2022-09-23T02:44:48.514Z,493.9
2022-09-23T02:45:54.933Z,500.1
2022-09-23T02:47:01.387Z,497.4
2022-09-23T02:48:07.822Z,496.4
2022-09-23T02:49:14.197Z,496.9
2022-09-23T02:50:20.616Z,495.4
2022-09-23T02:51:27.042Z,495.4
2022-09-23T02:52:33.494Z,494.9
2022-09-23T02:53:39.889Z,499.7
2022-09-23T02:54:46.306Z,503.6
2022-09-23T02:55:52.731Z,495
2022-09-23T02:56:59.172Z,504.6
2022-09-23T02:58:05.593Z,496.7
2022-09-23T02:59:12.135Z,503.6
2022-09-23T03:00:18.689Z,499.4
2022-09-23T03:01:25.264Z,499.8
2022-09-23T03:02:31.791Z,496.1
2022-09-23T03:03:38.312Z,497.3
2022-09-23T03:04:44.846Z,497.2
2022-09-23T03:05:51.386Z,502.7
2022-09-23T03:06:57.920Z,492.9
2022-09-23T03:08:04.463Z,496.7
2022-09-23T03:09:11.010Z,498.8
2022-09-23T03:10:17.557Z,497.9
2022-09-23T03:11:24.091Z,494.5
2022-09-23T03:12:30.650Z,502.5
2022-09-23T03:14:19.977Z,494.6
2022-09-23T03:15:26.796Z,496.5
2022-09-23T03:16:33.547Z,501.6
2022-09-23T03:17:40.322Z,494.4
2022-09-23T03:18:47.101Z,503.5
2022-09-23T03:19:53.883Z,492.3
2022-09-23T03:21:00.662Z,499.6
2022-09-23T03:22:07.443Z,494.5
2022-09-23T03:23:14.223Z,502.6
2022-09-23T03:24:20.994Z,500.3
2022-09-23T03:25:27.809Z,492.4
2022-09-23T03:26:34.549Z,495.6
2022-09-23T03:27:41.334Z,494.1
2022-09-23T03:30:59.510Z,486.7
2022-09-23T03:32:37.432Z,491.3
2022-09-23T03:33:43.827Z,494.5
2022-09-23T03:34:50.250Z,497.9
2022-09-23T03:35:56.675Z,495.2
2022-09-23T03:37:03.089Z,494.9
2022-09-23T03:38:09.591Z,495.7
2022-09-23T03:39:15.936Z,496.6
2022-09-23T03:40:22.389Z,496.1
2022-09-23T03:41:28.782Z,503.2
2022-09-23T03:42:35.209Z,498.2
2022-09-23T03:43:41.629Z,495.7
2022-09-23T03:44:48.063Z,498
2022-09-23T03:45:54.479Z,498.2
2022-09-23T03:47:00.896Z,495.2
2022-09-23T03:48:07.337Z,502.7
2022-09-23T03:49:13.747Z,493.5
2022-09-23T03:50:20.164Z,495.3
2022-09-23T03:51:26.622Z,495.2
2022-09-23T03:52:33.005Z,495.5
2022-09-23T03:53:39.457Z,500.7
2022-09-23T03:54:45.865Z,502.5
2022-09-23T03:55:52.272Z,501.2
2022-09-23T03:56:58.724Z,497.3
2022-09-23T03:58:05.148Z,496.2
2022-09-23T03:59:11.542Z,494.5
2022-09-23T04:00:18.099Z,493.3
2022-09-23T04:01:24.649Z,488.7
2022-09-23T04:02:31.213Z,492
2022-09-23T04:03:37.717Z,495
2022-09-23T04:04:44.301Z,501.1
2022-09-23T04:05:50.835Z,487.9
2022-09-23T04:06:57.408Z,498.3
2022-09-23T04:08:03.936Z,495.4
2022-09-23T04:09:10.424Z,488.5
2022-09-23T04:10:17.011Z,491.8
2022-09-23T04:11:23.520Z,493.8
2022-09-23T04:12:30.104Z,490.3
2022-09-23T04:13:36.593Z,494.9
2022-09-23T04:15:25.937Z,498.3
2022-09-23T04:16:32.718Z,494.2
2022-09-23T04:17:39.532Z,494
2022-09-23T04:18:46.284Z,491.3
2022-09-23T04:19:53.060Z,485.7
2022-09-23T04:20:59.827Z,496.2
2022-09-23T04:22:06.595Z,493.7
2022-09-23T04:23:13.434Z,484.9
2022-09-23T04:24:20.145Z,493.7
2022-09-23T04:25:26.922Z,495.3
2022-09-23T04:26:33.704Z,491.2
2022-09-23T04:27:40.495Z,492
2022-09-23T04:28:47.264Z,488
2022-09-23T04:32:05.434Z,496.1
2022-09-23T04:33:43.323Z,489.8
2022-09-23T04:34:49.749Z,499.5
2022-09-23T04:35:56.176Z,494.2
2022-09-23T04:37:02.591Z,488.4
2022-09-23T04:38:09.005Z,495.4
2022-09-23T04:39:15.424Z,502.8
2022-09-23T04:40:21.842Z,498.2
2022-09-23T04:41:28.251Z,499.3
2022-09-23T04:42:34.680Z,486.5
2022-09-23T04:43:41.099Z,495.8
2022-09-23T04:44:47.527Z,492.1
2022-09-23T04:45:53.942Z,490.1
2022-09-23T04:47:00.377Z,497.6
2022-09-23T04:48:06.814Z,488.6
2022-09-23T04:49:13.221Z,495.1
2022-09-23T04:50:19.639Z,493.4
2022-09-23T04:51:26.070Z,489.1
2022-09-23T04:52:32.484Z,483.3
2022-09-23T04:53:38.908Z,492.2
2022-09-23T04:54:45.339Z,494.5
2022-09-23T04:55:51.750Z,491.2
2022-09-23T04:56:58.190Z,497
2022-09-23T04:58:04.616Z,489
2022-09-23T04:59:11.040Z,486.1
2022-09-23T05:00:17.458Z,496.3
2022-09-23T05:01:24.018Z,499.9
2022-09-23T05:03:37.117Z,491.8
2022-09-23T05:04:43.684Z,494.4
2022-09-23T05:05:50.190Z,492.3
2022-09-23T05:06:56.728Z,487.1
2022-09-23T05:08:03.284Z,488.6
2022-09-23T05:09:09.812Z,489.9
2022-09-23T05:10:16.346Z,493.6
2022-09-23T05:11:22.928Z,486.8
2022-09-23T05:12:29.432Z,488
2022-09-23T05:13:36.000Z,490.9
2022-09-23T05:14:42.556Z,494.4
2022-09-23T05:16:31.897Z,483.7
2022-09-23T05:17:38.669Z,492.9
2022-09-23T05:18:45.426Z,495
2022-09-23T05:19:52.236Z,497
2022-09-23T05:20:58.984Z,495.2
2022-09-23T05:22:05.824Z,493.2
2022-09-23T05:23:12.544Z,490.5
2022-09-23T05:24:19.320Z,497.8
2022-09-23T05:25:26.160Z,484.4
2022-09-23T05:26:32.884Z,499.4
2022-09-23T05:27:39.695Z,490.5
2022-09-23T05:28:46.542Z,495.2
2022-09-23T05:29:53.218Z,489.2
2022-09-23T05:33:11.414Z,489.7
2022-09-23T05:34:49.310Z,491.6
2022-09-23T05:35:55.726Z,496.1
2022-09-23T05:37:02.158Z,497.2
2022-09-23T05:38:08.561Z,489.8
2022-09-23T05:39:14.977Z,495.2
2022-09-23T05:40:21.395Z,486.1
2022-09-23T05:41:27.816Z,493.4
2022-09-23T05:42:34.278Z,500.7
2022-09-23T05:43:40.660Z,493.3
2022-09-23T05:44:47.072Z,495.6
2022-09-23T05:45:53.474Z,493.5
2022-09-23T05:46:59.920Z,492.2
2022-09-23T05:48:06.322Z,493.7
2022-09-23T05:49:12.828Z,493.9
2022-09-23T05:50:19.148Z,492.4
2022-09-23T05:51:25.583Z,496
2022-09-23T05:52:31.984Z,496.4
2022-09-23T05:53:38.397Z,500.9
2022-09-23T05:54:44.825Z,492.9
2022-09-23T05:55:51.386Z,500.2
2022-09-23T05:56:57.794Z,491.6
2022-09-23T05:58:04.102Z,494.5
2022-09-23T05:59:10.562Z,496
2022-09-23T06:00:16.948Z,499.8
2022-09-23T06:01:23.374Z,488.5
2022-09-23T06:02:29.982Z,494.7
2022-09-23T06:03:36.566Z,494.7
2022-09-23T06:04:43.153Z,500
2022-09-23T06:05:49.639Z,503.5
2022-09-23T06:06:56.145Z,500.1
2022-09-23T06:08:02.700Z,501.7
2022-09-23T06:09:09.289Z,489.2
2022-09-23T06:10:15.764Z,491.6
2022-09-23T06:11:22.312Z,497.9
2022-09-23T06:12:28.787Z,500.9
2022-09-23T06:13:35.396Z,500.7
2022-09-23T06:15:48.416Z,495.9
2022-09-23T06:17:37.777Z,501.9
2022-09-23T06:18:44.634Z,501.8
2022-09-23T06:19:51.310Z,509.4
2022-09-23T06:20:58.084Z,498.6
2022-09-23T06:22:04.857Z,507.1
2022-09-23T06:23:11.810Z,507.2
2022-09-23T06:24:18.504Z,501.8
2022-09-23T06:25:25.280Z,505.5
2022-09-23T06:26:31.970Z,507.8
2022-09-23T06:27:38.743Z,507
2022-09-23T06:28:45.517Z,507.8
2022-09-23T06:29:52.291Z,508.5
2022-09-23T06:30:59.094Z,509
2022-09-23T06:34:17.354Z,509
2022-09-23T06:35:55.303Z,505.5
2022-09-23T06:37:01.736Z,509.8
2022-09-23T06:38:08.049Z,506.3
2022-09-23T06:39:14.426Z,511.2
2022-09-23T06:40:20.851Z,516.7
2022-09-23T06:41:27.276Z,512.9
2022-09-23T06:42:33.706Z,517.7
2022-09-23T06:43:40.124Z,516
2022-09-23T06:44:46.551Z,509.7
2022-09-23T06:45:52.984Z,509.3
2022-09-23T06:46:59.407Z,511.9
2022-09-23T06:48:05.829Z,514.2
2022-09-23T06:49:12.255Z,517.2
2022-09-23T06:50:18.678Z,513.4
2022-09-23T06:51:25.092Z,517.3
2022-09-23T06:52:31.535Z,510.5
2022-09-23T06:53:37.941Z,515.6
2022-09-23T06:54:44.368Z,515.7
2022-09-23T06:55:50.788Z,520.2
2022-09-23T06:56:57.229Z,520.7
2022-09-23T06:58:03.647Z,518.6
2022-09-23T07:00:16.502Z,521.4
2022-09-23T07:01:22.920Z,516
2022-09-23T07:02:29.347Z,523.2
2022-09-23T07:03:35.904Z,528.5
2022-09-23T07:04:42.443Z,519.3
2022-09-23T07:05:49.001Z,520.7
2022-09-23T07:06:55.533Z,520.4
2022-09-23T07:08:02.080Z,518.4
2022-09-23T07:09:08.626Z,524.9
2022-09-23T07:10:15.171Z,521.3
2022-09-23T07:11:21.710Z,525.5
2022-09-23T07:12:28.243Z,526.5
2022-09-23T07:13:34.789Z,526.4
2022-09-23T07:14:41.316Z,523.5
2022-09-23T07:15:47.865Z,522.7
2022-09-23T07:16:54.419Z,523.6
2022-09-23T07:18:43.750Z,527.8
2022-09-23T07:19:50.523Z,526.7
2022-09-23T07:20:57.298Z,527.7
2022-09-23T07:22:04.078Z,530.8
2022-09-23T07:23:10.861Z,533.3
2022-09-23T07:24:17.649Z,530.6
2022-09-23T07:25:24.425Z,531.3
2022-09-23T07:26:31.190Z,528.5
2022-09-23T07:27:37.963Z,529.7
2022-09-23T07:28:44.745Z,529.8
2022-09-23T07:29:51.560Z,532.3
2022-09-23T07:30:58.435Z,532.6
2022-09-23T07:32:05.183Z,535.2
2022-09-23T07:35:23.258Z,532.9
2022-09-23T07:37:01.179Z,542.4
2022-09-23T07:38:07.574Z,540.1
2022-09-23T07:39:13.996Z,541.2
2022-09-23T07:40:20.417Z,538.1
2022-09-23T07:41:26.845Z,537.7
2022-09-23T07:42:33.263Z,537.4
2022-09-23T07:43:39.693Z,538.2
2022-09-23T07:44:46.105Z,536.3
2022-09-23T07:45:52.533Z,544.3
2022-09-23T07:46:59.023Z,541.4
2022-09-23T07:48:05.416Z,541.6
2022-09-23T07:49:11.865Z,542.5
2022-09-23T07:50:18.294Z,535.5
2022-09-23T07:51:24.732Z,541.6
2022-09-23T07:52:31.172Z,546.3
2022-09-23T07:53:37.617Z,551
2022-09-23T07:54:44.062Z,549.1
2022-09-23T07:55:50.490Z,556.6
2022-09-23T07:56:56.945Z,560.5
2022-09-23T07:58:03.377Z,557.9
2022-09-23T07:59:09.800Z,563.5
2022-09-23T08:00:16.242Z,562.1
2022-09-23T08:01:22.689Z,561.6
2022-09-23T08:02:29.115Z,563.5
2022-09-23T08:03:35.564Z,562.6
2022-09-23T08:04:42.139Z,566.5
2022-09-23T08:05:48.687Z,568.2
2022-09-23T08:06:55.241Z,567.3
2022-09-23T08:08:01.799Z,567.6
2022-09-23T08:09:08.365Z,574.6
2022-09-23T08:10:14.926Z,573.4
2022-09-23T08:11:21.469Z,575.9
2022-09-23T08:12:28.031Z,576
2022-09-23T08:13:34.589Z,581.7
2022-09-23T08:14:41.139Z,580.9
2022-09-23T08:15:47.704Z,581.7
2022-09-23T08:16:54.261Z,580.2
2022-09-23T08:18:00.810Z,583.5
2022-09-23T08:19:50.123Z,582
2022-09-23T08:20:56.940Z,580
2022-09-23T08:22:03.704Z,582.8
2022-09-23T08:23:10.506Z,581.1
2022-09-23T08:24:17.287Z,584.1
2022-09-23T08:25:24.081Z,587.2
2022-09-23T08:26:30.879Z,586.2
2022-09-23T08:27:37.672Z,586.1
2022-09-23T08:28:44.483Z,580.7
2022-09-23T08:29:51.271Z,582.2
2022-09-23T08:30:58.047Z,585.2
2022-09-23T08:32:04.850Z,583
2022-09-23T08:33:11.643Z,583
2022-09-23T08:36:29.751Z,586.8
2022-09-23T08:38:08.489Z,588.7
2022-09-23T08:39:15.759Z,588.7
2022-09-23T08:40:23.052Z,589.4
2022-09-23T08:42:01.779Z,589.1
2022-09-23T08:43:40.507Z,589.7
2022-09-23T08:45:19.249Z,589.6
2022-09-23T08:46:57.979Z,592.3
2022-09-23T08:48:36.728Z,590.8
2022-09-23T08:50:15.461Z,593.2
2022-09-23T08:51:54.194Z,589.4
2022-09-23T08:53:32.943Z,589.4
2022-09-23T08:55:11.675Z,592
2022-09-23T08:56:51.432Z,589.9
2022-09-23T09:00:07.353Z,590.5
2022-09-23T09:01:14.145Z,590.5
2022-09-23T09:02:20.931Z,592.3
2022-09-23T09:03:27.729Z,593.4
2022-09-23T09:04:34.534Z,591
2022-09-23T09:05:41.327Z,591.1
2022-09-23T09:06:48.131Z,593.6
2022-09-23T09:07:54.913Z,595.7
2022-09-23T09:09:01.708Z,594
2022-09-23T09:10:08.496Z,592.8
2022-09-23T09:11:15.290Z,592.6
2022-09-23T09:12:22.100Z,590.7
2022-09-23T09:13:28.887Z,593.1
2022-09-23T09:14:35.686Z,591
2022-09-23T09:15:42.476Z,593.9
2022-09-23T09:16:49.300Z,593
2022-09-23T09:17:56.059Z,593.7
2022-09-23T09:19:02.863Z,592.7
2022-09-23T09:20:09.656Z,593.3
2022-09-23T09:21:16.447Z,591.3
2022-09-23T09:22:23.241Z,593.2
2022-09-23T09:23:30.037Z,592.6
2022-09-23T09:24:36.836Z,591.4
2022-09-23T09:25:43.634Z,593
2022-09-23T09:26:50.525Z,594.2
2022-09-23T09:29:02.620Z,592.8
2022-09-23T09:30:09.995Z,593.1
2022-09-23T09:31:17.159Z,595.7
2022-09-23T09:32:55.888Z,594.6
2022-09-23T09:34:34.637Z,595.1
2022-09-23T09:36:13.362Z,594.3
2022-09-23T09:37:52.098Z,594.9
2022-09-23T09:39:30.872Z,594.8
2022-09-23T09:41:09.587Z,595.4
2022-09-23T09:42:48.301Z,596.5
2022-09-23T09:44:27.065Z,597.2
2022-09-23T09:46:05.773Z,594
2022-09-23T09:47:13.041Z,596.5
2022-09-23T09:50:13.836Z,594.6
2022-09-23T09:53:29.457Z,598.3
2022-09-23T09:54:36.012Z,599.3
2022-09-23T09:55:42.568Z,598.6
2022-09-23T09:56:49.119Z,598.2
2022-09-23T09:57:55.682Z,597.9
2022-09-23T09:59:02.222Z,599.5
2022-09-23T10:00:08.792Z,601
2022-09-23T10:01:15.332Z,598.4
2022-09-23T10:02:21.890Z,599
2022-09-23T10:03:28.452Z,598.5
2022-09-23T10:04:34.998Z,599.9
2022-09-23T10:05:41.557Z,600.2
2022-09-23T10:06:48.109Z,600.8
2022-09-23T10:07:54.660Z,601.6
2022-09-23T10:09:01.217Z,599
2022-09-23T10:10:07.762Z,600.8
2022-09-23T10:11:14.322Z,600.5
2022-09-23T10:12:20.872Z,600.8
2022-09-23T10:13:27.424Z,600.1
2022-09-23T10:14:33.979Z,601.8
2022-09-23T10:15:40.528Z,601.7
2022-09-23T10:16:47.091Z,599.7
2022-09-23T10:17:53.641Z,599.9
2022-09-23T10:19:00.200Z,599.5
2022-09-23T10:20:06.747Z,598.6
2022-09-23T10:21:13.539Z,598.6
2022-09-23T10:22:20.338Z,598.6
2022-09-23T10:23:27.130Z,599.9
2022-09-23T10:24:33.956Z,600.5
2022-09-23T10:25:40.711Z,599.2
2022-09-23T10:26:47.502Z,601.8
2022-09-23T10:27:54.314Z,599.7
2022-09-23T10:29:01.080Z,597.8
2022-09-23T10:30:07.867Z,599.5
2022-09-23T10:31:14.662Z,599.3
2022-09-23T10:32:21.455Z,600.1
2022-09-23T10:33:28.255Z,601
2022-09-23T10:34:35.038Z,601.6
2022-09-23T10:35:42.349Z,598.7
2022-09-23T10:37:21.073Z,599.5
2022-09-23T10:38:59.811Z,598.2
2022-09-23T10:40:38.544Z,600.5
2022-09-23T10:42:17.286Z,600.2
2022-09-23T10:43:56.025Z,600.1
2022-09-23T10:45:34.766Z,600.5
2022-09-23T10:47:13.492Z,598
2022-09-23T10:48:52.228Z,599.7
2022-09-23T10:50:30.965Z,600.5
2022-09-23T10:52:09.700Z,598.1
2022-09-23T10:53:48.484Z,601
2022-09-23T10:55:27.172Z,599.5
2022-09-23T10:59:35.175Z,599.4
2022-09-23T11:00:43.439Z,604.8
2022-09-23T11:02:52.568Z,603.3
2022-09-23T11:06:08.248Z,601.5
2022-09-23T11:07:14.806Z,604.1
2022-09-23T11:08:21.354Z,602.9
2022-09-23T11:09:27.905Z,600.7
2022-09-23T11:10:34.461Z,601.3
2022-09-23T11:11:41.014Z,602.2
2022-09-23T11:12:47.568Z,602.4
2022-09-23T11:15:00.665Z,600.1
2022-09-23T11:16:07.209Z,602.3
2022-09-23T11:17:13.761Z,602.2
2022-09-23T11:18:20.305Z,601.4
2022-09-23T11:19:26.882Z,600.9
2022-09-23T11:20:33.401Z,602
2022-09-23T11:21:39.941Z,599.5
2022-09-23T11:22:46.504Z,601.2
2022-09-23T11:23:53.049Z,602.5
2022-09-23T11:24:59.600Z,600.9
2022-09-23T11:26:06.147Z,602.4
2022-09-23T11:27:12.698Z,602.5
2022-09-23T11:28:19.245Z,605.8
2022-09-23T11:29:25.793Z,602
2022-09-23T11:30:32.348Z,603
2022-09-23T11:31:38.906Z,604
2022-09-23T11:32:45.451Z,603.6
2022-09-23T11:33:52.235Z,606.5
2022-09-23T11:34:59.036Z,602.8
2022-09-23T11:36:05.823Z,602
2022-09-23T11:37:12.608Z,605.3
2022-09-23T11:38:19.392Z,605.5
2022-09-23T11:39:26.193Z,605.5
2022-09-23T11:40:32.968Z,605.1
2022-09-23T11:41:39.764Z,605
2022-09-23T11:42:46.554Z,605.2
2022-09-23T11:43:53.340Z,606.5
2022-09-23T11:45:00.126Z,604.3
2022-09-23T11:46:06.920Z,607.5
2022-09-23T11:47:13.719Z,606.4
2022-09-23T11:50:31.864Z,606.3
2022-09-23T11:51:39.131Z,609.4
2022-09-23T11:52:46.392Z,608.3
2022-09-23T11:54:25.132Z,610.1
2022-09-23T11:56:03.867Z,613.1
2022-09-23T11:57:42.764Z,613.9
2022-09-23T11:59:21.334Z,613.9
2022-09-23T12:01:00.166Z,616.6
2022-09-23T12:02:38.812Z,617.4
2022-09-23T12:04:17.641Z,616.9
2022-09-23T12:05:56.287Z,617.9
2022-09-23T12:07:35.028Z,618.9
2022-09-23T12:08:42.289Z,619.8
2022-09-23T12:11:43.075Z,619.6
2022-09-23T12:14:58.791Z,616.2
2022-09-23T12:16:05.350Z,613.3
2022-09-23T12:17:11.873Z,613.7
2022-09-23T12:18:18.531Z,613.7
2022-09-23T12:19:24.988Z,612.3
2022-09-23T12:20:31.668Z,610.8
2022-09-23T12:21:38.243Z,611.8
2022-09-23T12:22:44.641Z,611.1
2022-09-23T12:23:51.389Z,609.8
2022-09-23T12:24:57.766Z,609.5
2022-09-23T12:26:04.341Z,608.9
2022-09-23T12:27:10.848Z,607
2022-09-23T12:28:17.528Z,608.5
2022-09-23T12:29:24.085Z,605.3
2022-09-23T12:30:30.595Z,607.9
2022-09-23T12:31:37.055Z,607.9
2022-09-23T12:32:43.637Z,608.3
2022-09-23T12:33:50.153Z,607.8
2022-09-23T12:34:56.705Z,606.8
2022-09-23T12:36:03.272Z,608.3
2022-09-23T12:37:09.955Z,607.7
2022-09-23T12:38:16.358Z,604.9
2022-09-23T12:39:22.920Z,608.2
2022-09-23T12:40:29.537Z,603.3
2022-09-23T12:41:36.160Z,605.9
2022-09-23T12:42:42.958Z,605.8
2022-09-23T12:43:49.741Z,602.8
2022-09-23T12:44:56.515Z,606.9
2022-09-23T12:46:03.332Z,605.3
2022-09-23T12:47:10.114Z,607.4
2022-09-23T12:48:16.843Z,603.5
2022-09-23T12:49:23.698Z,606.4
2022-09-23T12:50:30.500Z,605.6
2022-09-23T12:51:37.281Z,604.3
2022-09-23T12:52:43.994Z,606
2022-09-23T12:53:50.788Z,604
2022-09-23T12:54:57.620Z,605.1
2022-09-23T12:56:04.304Z,604.3
2022-09-23T12:57:11.744Z,606.5
2022-09-23T12:58:50.391Z,606.8
2022-09-23T13:00:29.205Z,605.2
2022-09-23T13:02:07.787Z,607.2
2022-09-23T13:03:46.636Z,605.7
2022-09-23T13:05:25.259Z,602.5
2022-09-23T13:07:04.100Z,602.8
2022-09-23T13:08:42.725Z,603.7
2022-09-23T13:10:21.617Z,602.1
2022-09-23T13:12:00.327Z,604.5
2022-09-23T13:13:39.070Z,600.5
2022-09-23T13:15:17.780Z,601.8
2022-09-23T13:16:56.533Z,602.4
2022-09-23T13:21:04.497Z,602.9
2022-09-23T13:22:11.136Z,604.3
2022-09-23T13:24:20.196Z,603.8
2022-09-23T13:25:26.769Z,601.3
2022-09-23T13:26:33.320Z,602.5
2022-09-23T13:27:39.853Z,600.2
2022-09-23T13:28:46.363Z,601.4
2022-09-23T13:29:52.978Z,601.5
2022-09-23T13:30:59.516Z,601.7
2022-09-23T13:32:05.918Z,603.4
2022-09-23T13:33:12.568Z,601.2
2022-09-23T13:34:19.124Z,599.7
2022-09-23T13:35:25.716Z,599.2
2022-09-23T13:36:32.124Z,599.6
2022-09-23T13:37:38.670Z,601.8
2022-09-23T13:38:45.360Z,600.8
2022-09-23T13:39:51.912Z,600.9
2022-09-23T13:40:58.450Z,602.3
2022-09-23T13:42:05.014Z,601.3
2022-09-23T13:43:11.552Z,601.9
2022-09-23T13:44:18.110Z,601
2022-09-23T13:45:24.510Z,602.2
2022-09-23T13:46:31.183Z,602.2
2022-09-23T13:47:37.761Z,600.1
2022-09-23T13:48:44.331Z,600.6
2022-09-23T13:49:50.869Z,602.4
2022-09-23T13:50:57.658Z,601.5
2022-09-23T13:52:04.461Z,602.9
2022-09-23T13:53:11.233Z,602.2
2022-09-23T13:54:18.035Z,600.6
2022-09-23T13:55:24.837Z,601.9
2022-09-23T13:56:31.620Z,602.2
2022-09-23T13:57:38.371Z,602.2
2022-09-23T13:58:45.206Z,602.8
2022-09-23T13:59:52.008Z,602.1
2022-09-23T14:00:58.764Z,602.2
2022-09-23T14:02:05.589Z,601.8
2022-09-23T14:03:12.364Z,600.9
2022-09-23T14:04:19.167Z,602.8
2022-09-23T14:06:58.831Z,600.8
2022-09-23T14:08:37.557Z,601.4
2022-09-23T14:10:16.287Z,600.5
2022-09-23T14:11:55.083Z,597.3
2022-09-23T14:13:02.291Z,599
2022-09-23T14:14:09.452Z,599.1
2022-09-23T14:15:48.294Z,601.3
2022-09-23T14:17:27.026Z,598.1
2022-09-23T14:19:05.742Z,598.2
2022-09-23T14:20:44.469Z,596.9
2022-09-23T14:22:23.224Z,597.8
2022-09-23T14:24:01.792Z,599.4
2022-09-23T14:25:40.520Z,600.3
2022-09-23T14:29:30.314Z,599.6
2022-09-23T14:30:37.143Z,599.6
2022-09-23T14:31:43.940Z,596.6
2022-09-23T14:32:50.725Z,597.3
2022-09-23T14:33:57.356Z,597.1
2022-09-23T14:35:04.262Z,597.6
2022-09-23T14:36:11.072Z,595
2022-09-23T14:37:17.794Z,596.5
2022-09-23T14:38:24.638Z,597.5
2022-09-23T14:39:31.469Z,596.8
2022-09-23T14:40:38.193Z,599.6
2022-09-23T14:41:45.039Z,595.4
2022-09-23T14:42:51.746Z,597.8
2022-09-23T14:43:58.457Z,596.8
2022-09-23T14:45:05.354Z,598
2022-09-23T14:46:12.198Z,596.8
2022-09-23T14:47:18.815Z,597
2022-09-23T14:49:32.445Z,597.2
2022-09-23T14:50:39.333Z,595.1
2022-09-23T14:51:46.122Z,593
2022-09-23T14:52:52.902Z,593.4
2022-09-23T14:53:59.672Z,594.5
2022-09-23T14:55:06.476Z,595.2
2022-09-23T14:56:13.262Z,596.6
2022-09-23T14:57:20.044Z,597.6
2022-09-23T14:59:32.207Z,597.2
2022-09-23T15:01:10.963Z,597.6
2022-09-23T15:02:23.338Z,596.4
2022-09-23T15:03:30.606Z,596
2022-09-23T15:05:09.291Z,597.2
2022-09-23T15:06:48.055Z,594.5
2022-09-23T15:08:26.792Z,594.2
2022-09-23T15:10:05.455Z,594.3
2022-09-23T15:11:44.271Z,593.4
2022-09-23T15:13:22.919Z,594.9
2022-09-23T15:15:01.718Z,593.2
2022-09-23T15:16:40.460Z,593.1
2022-09-23T15:18:19.051Z,591.7
2022-09-23T15:19:58.919Z,591.1
2022-09-23T15:23:14.602Z,591.2
2022-09-23T15:24:21.129Z,589.7
2022-09-23T15:25:27.710Z,593.7
2022-09-23T15:26:34.267Z,591.3
2022-09-23T15:27:40.803Z,592.8
2022-09-23T15:28:47.387Z,590.8
2022-09-23T15:29:53.924Z,592
2022-09-23T15:31:00.497Z,590.6
2022-09-23T15:32:07.034Z,589.6
2022-09-23T15:33:13.593Z,590.9
2022-09-23T15:34:19.993Z,591.1
2022-09-23T15:35:26.712Z,589.5
2022-09-23T15:36:33.281Z,593.1
2022-09-23T15:37:39.814Z,590.3
2022-09-23T15:38:46.362Z,589.3
2022-09-23T15:39:52.903Z,594
2022-09-23T15:40:59.448Z,590.2
2022-09-23T15:42:05.870Z,591.6
2022-09-23T15:43:12.572Z,590.5
2022-09-23T15:44:19.109Z,591
2022-09-23T15:45:25.674Z,590.2
2022-09-23T15:46:32.239Z,589.6
2022-09-23T15:47:38.784Z,588.8
2022-09-23T15:48:45.301Z,591.7
2022-09-23T15:49:51.887Z,589.1
2022-09-23T15:50:58.653Z,590.5
2022-09-23T15:52:05.453Z,589.4
2022-09-23T15:53:12.232Z,588.5
2022-09-23T15:54:19.026Z,589.8
2022-09-23T15:55:25.697Z,586.8
2022-09-23T15:56:32.497Z,589.4
2022-09-23T15:57:39.279Z,587.4
2022-09-23T15:58:46.127Z,588.7
2022-09-23T15:59:52.839Z,587.1
2022-09-23T16:00:59.677Z,587.2
2022-09-23T16:02:06.415Z,587.7
2022-09-23T16:03:13.202Z,586.6
2022-09-23T16:04:20.062Z,588.1
2022-09-23T16:07:00.198Z,586
2022-09-23T16:08:38.894Z,590.1
2022-09-23T16:10:17.702Z,584.4
2022-09-23T16:11:56.359Z,585.7
2022-09-23T16:13:03.618Z,586